Terminal Aerodrome Forecast
Issued by NWS Dallas/Fort Worth, TX

Home | Current Version | Previous Version | Text Only | Print | Product List | Glossary On
Versions: 1 2 3 4 5 6 7 8 9 10 11 12 13 14 15 16 17 18 19 20 21 22 23 24 25 26
000
FTUS44 KFWD 232000 AAA
TAFDFW
TAF AMD
KDFW 232058Z 2321/2424 06007KT P6SM SCT050 SCT250
     FM240000 08005KT P6SM VCTS SCT060CB BKN100
      TEMPO 2401/2403 03015G25KT 5SM -TSRA SCT010 BKN030CB OVC100
     FM240300 VRB04KT P6SM FEW060 SCT150
     FM241800 05006KT P6SM SCT060=

USA.gov is the U.S. government's official web portal to all federal, state and local government web resources and services.